sensor_id;sensor_type;location;lat;lon;timestamp;P1;durP1;ratioP1;P2;durP2;ratioP2
44832;SDS011;30569;51.252;9.830;2024-03-17T00:00:14;6.40;;;3.20;;
44832;SDS011;30569;51.252;9.830;2024-03-17T00:02:40;10.37;;;3.60;;
44832;SDS011;30569;51.252;9.830;2024-03-17T00:05:06;10.30;;;3.77;;
44832;SDS011;30569;51.252;9.830;2024-03-17T00:07:32;6.53;;;3.40;;
44832;SDS011;30569;51.252;9.830;2024-03-17T00:09:58;9.57;;;4.40;;
44832;SDS011;30569;51.252;9.830;2024-03-17T00:12:23;8.30;;;3.83;;
44832;SDS011;30569;51.252;9.830;2024-03-17T00:14:49;7.83;;;3.97;;
44832;SDS011;30569;51.252;9.830;2024-03-17T00:17:15;8.33;;;4.73;;
44832;SDS011;30569;51.252;9.830;2024-03-17T00:19:40;9.70;;;3.27;;
44832;SDS011;30569;51.252;9.830;2024-03-17T00:22:06;6.27;;;3.23;;
44832;SDS011;30569;51.252;9.830;2024-03-17T00:24:34;9.17;;;3.93;;
44832;SDS011;30569;51.252;9.830;2024-03-17T00:27:03;9.33;;;3.63;;
44832;SDS011;30569;51.252;9.830;2024-03-17T00:29:28;11.50;;;4.37;;
44832;SDS011;30569;51.252;9.830;2024-03-17T00:31:54;9.17;;;4.40;;
44832;SDS011;30569;51.252;9.830;2024-03-17T00:34:20;14.17;;;5.37;;
44832;SDS011;30569;51.252;9.830;2024-03-17T00:36:45;12.67;;;5.90;;
44832;SDS011;30569;51.252;9.830;2024-03-17T00:39:11;12.20;;;5.20;;
44832;SDS011;30569;51.252;9.830;2024-03-17T00:41:37;12.40;;;5.70;;
44832;SDS011;30569;51.252;9.830;2024-03-17T00:44:03;10.57;;;4.60;;
44832;SDS011;30569;51.252;9.830;2024-03-17T00:46:29;12.57;;;4.90;;
44832;SDS011;30569;51.252;9.830;2024-03-17T00:48:55;10.33;;;4.60;;
44832;SDS011;30569;51.252;9.830;2024-03-17T00:51:21;7.43;;;3.97;;
44832;SDS011;30569;51.252;9.830;2024-03-17T00:53:46;7.50;;;4.10;;
44832;SDS011;30569;51.252;9.830;2024-03-17T00:56:12;10.33;;;4.50;;
44832;SDS011;30569;51.252;9.830;2024-03-17T00:58:37;11.47;;;5.00;;
44832;SDS011;30569;51.252;9.830;2024-03-17T01:01:03;9.50;;;4.83;;
44832;SDS011;30569;51.252;9.830;2024-03-17T01:03:29;9.33;;;4.20;;
44832;SDS011;30569;51.252;9.830;2024-03-17T01:05:54;10.83;;;5.10;;
44832;SDS011;30569;51.252;9.830;2024-03-17T01:08:20;8.77;;;3.77;;
44832;SDS011;30569;51.252;9.830;2024-03-17T01:10:46;5.80;;;3.23;;
44832;SDS011;30569;51.252;9.830;2024-03-17T01:13:16;7.47;;;3.70;;
44832;SDS011;30569;51.252;9.830;2024-03-17T01:15:42;9.63;;;3.70;;
44832;SDS011;30569;51.252;9.830;2024-03-17T01:18:08;7.47;;;2.60;;
44832;SDS011;30569;51.252;9.830;2024-03-17T01:20:35;7.40;;;3.10;;
44832;SDS011;30569;51.252;9.830;2024-03-17T01:23:02;7.20;;;3.20;;
44832;SDS011;30569;51.252;9.830;2024-03-17T01:25:28;7.97;;;3.67;;
44832;SDS011;30569;51.252;9.830;2024-03-17T01:27:55;9.03;;;3.57;;
44832;SDS011;30569;51.252;9.830;2024-03-17T01:30:21;7.33;;;3.10;;
44832;SDS011;30569;51.252;9.830;2024-03-17T01:32:47;10.70;;;3.33;;
44832;SDS011;30569;51.252;9.830;2024-03-17T01:35:14;7.63;;;3.70;;
44832;SDS011;30569;51.252;9.830;2024-03-17T01:37:39;7.37;;;3.10;;
44832;SDS011;30569;51.252;9.830;2024-03-17T01:40:05;7.97;;;3.70;;
44832;SDS011;30569;51.252;9.830;2024-03-17T01:42:35;10.80;;;4.17;;
44832;SDS011;30569;51.252;9.830;2024-03-17T01:45:03;11.13;;;3.20;;
44832;SDS011;30569;51.252;9.830;2024-03-17T01:47:57;9.03;;;3.23;;
44832;SDS011;30569;51.252;9.830;2024-03-17T01:50:24;8.63;;;3.03;;
44832;SDS011;30569;51.252;9.830;2024-03-17T01:53:01;8.53;;;4.60;;
44832;SDS011;30569;51.252;9.830;2024-03-17T01:55:30;6.27;;;3.90;;
44832;SDS011;30569;51.252;9.830;2024-03-17T01:57:56;9.33;;;3.37;;
44832;SDS011;30569;51.252;9.830;2024-03-17T02:00:23;8.93;;;3.23;;
44832;SDS011;30569;51.252;9.830;2024-03-17T02:02:48;8.20;;;3.20;;
44832;SDS011;30569;51.252;9.830;2024-03-17T02:05:14;6.93;;;3.63;;
44832;SDS011;30569;51.252;9.830;2024-03-17T02:07:40;10.40;;;3.10;;
44832;SDS011;30569;51.252;9.830;2024-03-17T02:10:06;7.13;;;3.20;;
44832;SDS011;30569;51.252;9.830;2024-03-17T02:12:33;8.77;;;3.30;;
44832;SDS011;30569;51.252;9.830;2024-03-17T02:15:00;5.50;;;3.23;;
44832;SDS011;30569;51.252;9.830;2024-03-17T02:17:26;9.33;;;3.50;;
44832;SDS011;30569;51.252;9.830;2024-03-17T02:19:53;8.20;;;3.47;;
44832;SDS011;30569;51.252;9.830;2024-03-17T02:22:19;8.70;;;3.00;;
44832;SDS011;30569;51.252;9.830;2024-03-17T02:24:44;7.77;;;3.40;;
44832;SDS011;30569;51.252;9.830;2024-03-17T02:27:11;8.07;;;3.23;;
44832;SDS011;30569;51.252;9.830;2024-03-17T02:29:36;7.13;;;3.43;;
44832;SDS011;30569;51.252;9.830;2024-03-17T02:32:03;7.20;;;3.10;;
44832;SDS011;30569;51.252;9.830;2024-03-17T02:34:35;11.20;;;3.17;;
44832;SDS011;30569;51.252;9.830;2024-03-17T02:37:02;6.10;;;3.10;;
44832;SDS011;30569;51.252;9.830;2024-03-17T02:39:29;7.30;;;3.07;;
44832;SDS011;30569;51.252;9.830;2024-03-17T02:42:04;6.57;;;3.30;;
44832;SDS011;30569;51.252;9.830;2024-03-17T02:44:34;8.47;;;3.60;;
44832;SDS011;30569;51.252;9.830;2024-03-17T02:47:01;11.07;;;4.13;;
44832;SDS011;30569;51.252;9.830;2024-03-17T02:49:29;12.03;;;3.63;;
44832;SDS011;30569;51.252;9.830;2024-03-17T02:52:09;6.27;;;3.30;;
44832;SDS011;30569;51.252;9.830;2024-03-17T02:54:36;7.77;;;3.57;;
44832;SDS011;30569;51.252;9.830;2024-03-17T02:57:02;6.87;;;3.70;;
44832;SDS011;30569;51.252;9.830;2024-03-17T02:59:28;9.73;;;4.67;;
44832;SDS011;30569;51.252;9.830;2024-03-17T03:01:54;6.93;;;3.27;;
44832;SDS011;30569;51.252;9.830;2024-03-17T03:04:20;8.57;;;3.47;;
44832;SDS011;30569;51.252;9.830;2024-03-17T03:06:46;9.90;;;4.00;;
44832;SDS011;30569;51.252;9.830;2024-03-17T03:09:11;10.03;;;3.50;;
44832;SDS011;30569;51.252;9.830;2024-03-17T03:11:38;8.90;;;3.60;;
44832;SDS011;30569;51.252;9.830;2024-03-17T03:14:07;8.70;;;3.43;;
44832;SDS011;30569;51.252;9.830;2024-03-17T03:16:33;6.90;;;3.40;;
44832;SDS011;30569;51.252;9.830;2024-03-17T03:18:59;6.43;;;3.03;;
44832;SDS011;30569;51.252;9.830;2024-03-17T03:21:25;8.17;;;3.37;;
44832;SDS011;30569;51.252;9.830;2024-03-17T03:23:50;7.47;;;3.30;;
44832;SDS011;30569;51.252;9.830;2024-03-17T03:26:16;7.57;;;3.00;;
44832;SDS011;30569;51.252;9.830;2024-03-17T03:28:42;8.33;;;3.43;;
44832;SDS011;30569;51.252;9.830;2024-03-17T03:31:12;6.93;;;3.53;;
44832;SDS011;30569;51.252;9.830;2024-03-17T03:33:40;8.70;;;3.73;;
44832;SDS011;30569;51.252;9.830;2024-03-17T03:36:07;8.20;;;3.67;;
44832;SDS011;30569;51.252;9.830;2024-03-17T03:38:34;9.77;;;3.87;;
44832;SDS011;30569;51.252;9.830;2024-03-17T03:41:05;7.43;;;3.67;;
44832;SDS011;30569;51.252;9.830;2024-03-17T03:43:32;6.80;;;3.93;;
44832;SDS011;30569;51.252;9.830;2024-03-17T03:45:58;6.90;;;3.60;;
44832;SDS011;30569;51.252;9.830;2024-03-17T03:48:25;6.93;;;3.70;;
44832;SDS011;30569;51.252;9.830;2024-03-17T03:50:50;5.97;;;3.47;;
44832;SDS011;30569;51.252;9.830;2024-03-17T03:53:16;10.90;;;3.47;;
44832;SDS011;30569;51.252;9.830;2024-03-17T03:55:42;6.47;;;3.60;;
44832;SDS011;30569;51.252;9.830;2024-03-17T03:58:07;7.27;;;3.50;;
44832;SDS011;30569;51.252;9.830;2024-03-17T04:00:33;9.53;;;3.70;;
44832;SDS011;30569;51.252;9.830;2024-03-17T04:02:59;9.70;;;4.27;;
44832;SDS011;30569;51.252;9.830;2024-03-17T04:05:27;6.87;;;3.97;;
44832;SDS011;30569;51.252;9.830;2024-03-17T04:07:53;9.80;;;3.77;;
44832;SDS011;30569;51.252;9.830;2024-03-17T04:10:19;9.37;;;3.83;;
44832;SDS011;30569;51.252;9.830;2024-03-17T04:12:46;10.00;;;3.93;;
44832;SDS011;30569;51.252;9.830;2024-03-17T04:15:12;7.03;;;3.60;;
44832;SDS011;30569;51.252;9.830;2024-03-17T04:17:39;11.70;;;4.23;;
44832;SDS011;30569;51.252;9.830;2024-03-17T04:20:05;10.80;;;4.27;;
44832;SDS011;30569;51.252;9.830;2024-03-17T04:22:33;10.20;;;3.90;;
44832;SDS011;30569;51.252;9.830;2024-03-17T04:24:58;9.17;;;3.90;;
44832;SDS011;30569;51.252;9.830;2024-03-17T04:27:24;8.07;;;3.47;;
44832;SDS011;30569;51.252;9.830;2024-03-17T04:29:53;6.67;;;3.73;;
44832;SDS011;30569;51.252;9.830;2024-03-17T04:32:20;8.37;;;4.13;;
44832;SDS011;30569;51.252;9.830;2024-03-17T04:34:47;7.37;;;3.70;;
44832;SDS011;30569;51.252;9.830;2024-03-17T04:37:13;7.07;;;3.67;;
44832;SDS011;30569;51.252;9.830;2024-03-17T04:39:39;10.47;;;3.67;;
44832;SDS011;30569;51.252;9.830;2024-03-17T04:42:11;6.60;;;3.53;;
44832;SDS011;30569;51.252;9.830;2024-03-17T04:44:39;10.70;;;3.63;;
44832;SDS011;30569;51.252;9.830;2024-03-17T04:47:05;7.17;;;3.43;;
44832;SDS011;30569;51.252;9.830;2024-03-17T04:49:50;7.67;;;3.40;;
44832;SDS011;30569;51.252;9.830;2024-03-17T04:52:15;8.25;;;3.72;;
44832;SDS011;30569;51.252;9.830;2024-03-17T04:54:41;9.63;;;3.30;;
44832;SDS011;30569;51.252;9.830;2024-03-17T04:57:08;6.47;;;4.00;;
44832;SDS011;30569;51.252;9.830;2024-03-17T04:59:34;7.73;;;3.37;;
44832;SDS011;30569;51.252;9.830;2024-03-17T05:02:03;9.70;;;4.43;;
44832;SDS011;30569;51.252;9.830;2024-03-17T05:04:29;8.00;;;3.30;;
44832;SDS011;30569;51.252;9.830;2024-03-17T05:06:55;12.27;;;3.10;;
44832;SDS011;30569;51.252;9.830;2024-03-17T05:09:22;10.30;;;3.30;;
44832;SDS011;30569;51.252;9.830;2024-03-17T05:11:49;9.23;;;3.03;;
44832;SDS011;30569;51.252;9.830;2024-03-17T05:14:17;5.73;;;2.80;;
44832;SDS011;30569;51.252;9.830;2024-03-17T05:16:44;8.37;;;3.10;;
44832;SDS011;30569;51.252;9.830;2024-03-17T05:19:10;7.43;;;2.97;;
44832;SDS011;30569;51.252;9.830;2024-03-17T05:21:36;7.20;;;3.00;;
44832;SDS011;30569;51.252;9.830;2024-03-17T05:24:01;6.13;;;3.30;;
44832;SDS011;30569;51.252;9.830;2024-03-17T05:26:27;15.13;;;3.03;;
44832;SDS011;30569;51.252;9.830;2024-03-17T05:28:53;5.80;;;3.30;;
44832;SDS011;30569;51.252;9.830;2024-03-17T05:31:19;6.73;;;3.03;;
44832;SDS011;30569;51.252;9.830;2024-03-17T05:33:47;6.20;;;3.10;;
44832;SDS011;30569;51.252;9.830;2024-03-17T05:36:13;9.60;;;3.40;;
44832;SDS011;30569;51.252;9.830;2024-03-17T05:38:39;10.57;;;3.10;;
44832;SDS011;30569;51.252;9.830;2024-03-17T05:41:05;7.70;;;3.67;;
44832;SDS011;30569;51.252;9.830;2024-03-17T05:43:33;6.13;;;3.27;;
44832;SDS011;30569;51.252;9.830;2024-03-17T05:46:01;4.53;;;2.90;;
44832;SDS011;30569;51.252;9.830;2024-03-17T05:48:28;7.47;;;3.20;;
44832;SDS011;30569;51.252;9.830;2024-03-17T05:50:54;7.53;;;3.30;;
44832;SDS011;30569;51.252;9.830;2024-03-17T05:53:20;9.43;;;3.37;;
44832;SDS011;30569;51.252;9.830;2024-03-17T05:55:48;6.37;;;3.70;;
44832;SDS011;30569;51.252;9.830;2024-03-17T05:58:14;10.07;;;3.33;;
44832;SDS011;30569;51.252;9.830;2024-03-17T06:00:40;8.63;;;3.50;;
44832;SDS011;30569;51.252;9.830;2024-03-17T06:03:06;7.57;;;3.50;;
44832;SDS011;30569;51.252;9.830;2024-03-17T06:05:36;6.23;;;3.33;;
44832;SDS011;30569;51.252;9.830;2024-03-17T06:08:03;10.23;;;4.10;;
44832;SDS011;30569;51.252;9.830;2024-03-17T06:10:30;6.60;;;3.77;;
44832;SDS011;30569;51.252;9.830;2024-03-17T06:12:58;10.93;;;3.60;;
44832;SDS011;30569;51.252;9.830;2024-03-17T06:15:24;12.43;;;4.23;;
44832;SDS011;30569;51.252;9.830;2024-03-17T06:17:50;8.40;;;3.30;;
44832;SDS011;30569;51.252;9.830;2024-03-17T06:20:20;10.97;;;4.30;;
44832;SDS011;30569;51.252;9.830;2024-03-17T06:22:46;8.40;;;3.40;;
44832;SDS011;30569;51.252;9.830;2024-03-17T06:25:15;6.80;;;3.50;;
44832;SDS011;30569;51.252;9.830;2024-03-17T06:27:41;10.87;;;3.60;;
44832;SDS011;30569;51.252;9.830;2024-03-17T06:30:11;6.10;;;3.30;;
44832;SDS011;30569;51.252;9.830;2024-03-17T06:32:39;6.33;;;3.33;;
44832;SDS011;30569;51.252;9.830;2024-03-17T06:35:10;6.70;;;3.17;;
44832;SDS011;30569;51.252;9.830;2024-03-17T06:37:36;7.20;;;3.63;;
44832;SDS011;30569;51.252;9.830;2024-03-17T06:40:02;7.47;;;3.50;;
44832;SDS011;30569;51.252;9.830;2024-03-17T06:42:28;6.37;;;3.20;;
44832;SDS011;30569;51.252;9.830;2024-03-17T06:44:55;5.87;;;3.13;;
44832;SDS011;30569;51.252;9.830;2024-03-17T06:47:20;7.33;;;3.03;;
44832;SDS011;30569;51.252;9.830;2024-03-17T06:49:46;5.47;;;2.90;;
44832;SDS011;30569;51.252;9.830;2024-03-17T06:52:12;8.13;;;3.30;;
44832;SDS011;30569;51.252;9.830;2024-03-17T06:54:37;5.00;;;3.00;;
44832;SDS011;30569;51.252;9.830;2024-03-17T06:57:03;6.90;;;4.00;;
44832;SDS011;30569;51.252;9.830;2024-03-17T06:59:32;7.27;;;3.37;;
44832;SDS011;30569;51.252;9.830;2024-03-17T07:01:58;7.73;;;3.33;;
44832;SDS011;30569;51.252;9.830;2024-03-17T07:04:23;8.57;;;3.50;;
44832;SDS011;30569;51.252;9.830;2024-03-17T07:06:49;6.07;;;3.57;;
44832;SDS011;30569;51.252;9.830;2024-03-17T07:09:15;7.97;;;3.70;;
44832;SDS011;30569;51.252;9.830;2024-03-17T07:11:42;7.00;;;3.50;;
44832;SDS011;30569;51.252;9.830;2024-03-17T07:14:09;8.43;;;4.27;;
44832;SDS011;30569;51.252;9.830;2024-03-17T07:16:34;6.40;;;3.60;;
44832;SDS011;30569;51.252;9.830;2024-03-17T07:19:01;9.37;;;4.70;;
44832;SDS011;30569;51.252;9.830;2024-03-17T07:21:27;8.83;;;5.80;;
44832;SDS011;30569;51.252;9.830;2024-03-17T07:23:53;10.00;;;5.00;;
44832;SDS011;30569;51.252;9.830;2024-03-17T07:26:18;11.20;;;6.17;;
44832;SDS011;30569;51.252;9.830;2024-03-17T07:28:44;11.33;;;5.60;;
44832;SDS011;30569;51.252;9.830;2024-03-17T07:31:10;13.37;;;5.17;;
44832;SDS011;30569;51.252;9.830;2024-03-17T07:33:36;11.47;;;4.97;;
44832;SDS011;30569;51.252;9.830;2024-03-17T07:36:01;12.57;;;5.23;;
44832;SDS011;30569;51.252;9.830;2024-03-17T07:38:28;11.57;;;4.93;;
44832;SDS011;30569;51.252;9.830;2024-03-17T07:40:56;9.83;;;5.60;;
44832;SDS011;30569;51.252;9.830;2024-03-17T07:43:33;11.07;;;5.40;;
44832;SDS011;30569;51.252;9.830;2024-03-17T07:46:01;12.77;;;4.73;;
44832;SDS011;30569;51.252;9.830;2024-03-17T07:48:36;12.73;;;5.13;;
44832;SDS011;30569;51.252;9.830;2024-03-17T07:53:36;9.70;;;4.70;;
44832;SDS011;30569;51.252;9.830;2024-03-17T07:56:04;10.85;;;5.18;;
44832;SDS011;30569;51.252;9.830;2024-03-17T08:01:09;13.55;;;5.82;;
44832;SDS011;30569;51.252;9.830;2024-03-17T08:03:37;12.10;;;6.57;;
44832;SDS011;30569;51.252;9.830;2024-03-17T08:06:04;10.57;;;6.35;;
44832;SDS011;30569;51.252;9.830;2024-03-17T08:08:30;10.85;;;5.97;;
44832;SDS011;30569;51.252;9.830;2024-03-17T08:10:56;10.55;;;5.93;;
44832;SDS011;30569;51.252;9.830;2024-03-17T08:13:23;12.23;;;5.90;;
44832;SDS011;30569;51.252;9.830;2024-03-17T08:15:58;13.27;;;6.30;;
44832;SDS011;30569;51.252;9.830;2024-03-17T08:18:28;10.32;;;5.35;;
44832;SDS011;30569;51.252;9.830;2024-03-17T08:20:54;10.23;;;5.30;;
44832;SDS011;30569;51.252;9.830;2024-03-17T08:23:23;9.52;;;5.75;;
44832;SDS011;30569;51.252;9.830;2024-03-17T08:25:55;12.15;;;5.47;;
44832;SDS011;30569;51.252;9.830;2024-03-17T08:28:22;8.57;;;5.50;;
44832;SDS011;30569;51.252;9.830;2024-03-17T08:30:52;13.68;;;6.95;;
44832;SDS011;30569;51.252;9.830;2024-03-17T08:33:23;12.70;;;7.22;;
44832;SDS011;30569;51.252;9.830;2024-03-17T08:35:56;14.35;;;6.72;;
44832;SDS011;30569;51.252;9.830;2024-03-17T08:38:23;13.65;;;7.35;;
44832;SDS011;30569;51.252;9.830;2024-03-17T08:40:50;11.13;;;6.43;;
44832;SDS011;30569;51.252;9.830;2024-03-17T08:43:17;15.00;;;7.65;;
44832;SDS011;30569;51.252;9.830;2024-03-17T08:45:43;12.57;;;7.53;;
44832;SDS011;30569;51.252;9.830;2024-03-17T08:48:09;11.00;;;7.15;;
44832;SDS011;30569;51.252;9.830;2024-03-17T08:50:37;13.40;;;7.00;;
44832;SDS011;30569;51.252;9.830;2024-03-17T08:53:03;11.77;;;7.22;;
44832;SDS011;30569;51.252;9.830;2024-03-17T08:55:29;14.27;;;7.57;;
44832;SDS011;30569;51.252;9.830;2024-03-17T08:57:55;12.27;;;7.63;;
44832;SDS011;30569;51.252;9.830;2024-03-17T09:00:21;12.25;;;6.68;;
44832;SDS011;30569;51.252;9.830;2024-03-17T09:02:46;16.25;;;8.05;;
44832;SDS011;30569;51.252;9.830;2024-03-17T09:05:12;14.88;;;7.97;;
44832;SDS011;30569;51.252;9.830;2024-03-17T09:07:38;17.25;;;7.65;;
44832;SDS011;30569;51.252;9.830;2024-03-17T09:10:04;11.95;;;7.03;;
44832;SDS011;30569;51.252;9.830;2024-03-17T09:12:30;14.02;;;7.10;;
44832;SDS011;30569;51.252;9.830;2024-03-17T09:14:57;13.63;;;7.72;;
44832;SDS011;30569;51.252;9.830;2024-03-17T09:17:22;11.55;;;6.82;;
44832;SDS011;30569;51.252;9.830;2024-03-17T09:19:48;8.93;;;6.18;;
44832;SDS011;30569;51.252;9.830;2024-03-17T09:22:14;10.52;;;6.22;;
44832;SDS011;30569;51.252;9.830;2024-03-17T09:24:39;14.18;;;6.38;;
44832;SDS011;30569;51.252;9.830;2024-03-17T09:27:05;13.55;;;7.20;;
44832;SDS011;30569;51.252;9.830;2024-03-17T09:29:31;11.63;;;6.63;;
44832;SDS011;30569;51.252;9.830;2024-03-17T09:31:58;12.65;;;6.22;;
44832;SDS011;30569;51.252;9.830;2024-03-17T09:34:23;10.65;;;6.38;;
44832;SDS011;30569;51.252;9.830;2024-03-17T09:36:49;10.10;;;6.22;;
44832;SDS011;30569;51.252;9.830;2024-03-17T09:39:15;10.15;;;5.80;;
44832;SDS011;30569;51.252;9.830;2024-03-17T09:41:41;10.07;;;5.93;;
44832;SDS011;30569;51.252;9.830;2024-03-17T09:44:09;9.52;;;5.80;;
44832;SDS011;30569;51.252;9.830;2024-03-17T09:46:38;8.57;;;6.07;;
44832;SDS011;30569;51.252;9.830;2024-03-17T09:49:04;10.52;;;5.65;;
44832;SDS011;30569;51.252;9.830;2024-03-17T09:51:34;10.35;;;5.78;;
44832;SDS011;30569;51.252;9.830;2024-03-17T09:54:01;9.25;;;5.18;;
44832;SDS011;30569;51.252;9.830;2024-03-17T09:56:40;9.60;;;5.82;;
44832;SDS011;30569;51.252;9.830;2024-03-17T09:59:06;9.82;;;5.50;;
44832;SDS011;30569;51.252;9.830;2024-03-17T10:01:32;8.35;;;5.45;;
44832;SDS011;30569;51.252;9.830;2024-03-17T10:03:58;9.80;;;6.03;;
44832;SDS011;30569;51.252;9.830;2024-03-17T10:06:29;9.20;;;5.32;;
44832;SDS011;30569;51.252;9.830;2024-03-17T10:08:56;8.75;;;5.45;;
44832;SDS011;30569;51.252;9.830;2024-03-17T10:11:23;10.10;;;6.25;;
44832;SDS011;30569;51.252;9.830;2024-03-17T10:14:00;10.55;;;5.97;;
44832;SDS011;30569;51.252;9.830;2024-03-17T10:16:28;12.80;;;6.05;;
44832;SDS011;30569;51.252;9.830;2024-03-17T10:19:11;10.48;;;5.53;;
44832;SDS011;30569;51.252;9.830;2024-03-17T10:21:44;11.65;;;5.72;;
44832;SDS011;30569;51.252;9.830;2024-03-17T10:24:20;11.20;;;6.00;;
44832;SDS011;30569;51.252;9.830;2024-03-17T10:26:53;10.35;;;6.13;;
44832;SDS011;30569;51.252;9.830;2024-03-17T10:29:24;12.52;;;6.65;;
44832;SDS011;30569;51.252;9.830;2024-03-17T10:31:53;13.00;;;6.43;;
44832;SDS011;30569;51.252;9.830;2024-03-17T10:34:21;10.80;;;5.95;;
44832;SDS011;30569;51.252;9.830;2024-03-17T10:37:05;10.05;;;5.75;;
44832;SDS011;30569;51.252;9.830;2024-03-17T10:39:36;9.98;;;5.80;;
44832;SDS011;30569;51.252;9.830;2024-03-17T10:42:03;11.82;;;5.80;;
44832;SDS011;30569;51.252;9.830;2024-03-17T10:44:30;11.07;;;6.38;;
44832;SDS011;30569;51.252;9.830;2024-03-17T10:46:59;11.02;;;5.75;;
44832;SDS011;30569;51.252;9.830;2024-03-17T10:49:33;8.40;;;5.25;;
44832;SDS011;30569;51.252;9.830;2024-03-17T10:52:03;11.13;;;6.20;;
44832;SDS011;30569;51.252;9.830;2024-03-17T10:54:33;13.60;;;7.00;;
44832;SDS011;30569;51.252;9.830;2024-03-17T10:59:55;10.30;;;5.60;;
44832;SDS011;30569;51.252;9.830;2024-03-17T11:02:22;13.75;;;6.93;;
44832;SDS011;30569;51.252;9.830;2024-03-17T11:04:50;10.35;;;5.82;;
44832;SDS011;30569;51.252;9.830;2024-03-17T11:07:18;9.90;;;6.13;;
44832;SDS011;30569;51.252;9.830;2024-03-17T11:09:45;10.70;;;6.30;;
44832;SDS011;30569;51.252;9.830;2024-03-17T11:12:58;10.23;;;5.45;;
44832;SDS011;30569;51.252;9.830;2024-03-17T11:20:34;13.73;;;6.28;;
44832;SDS011;30569;51.252;9.830;2024-03-17T11:23:07;12.43;;;6.13;;
44832;SDS011;30569;51.252;9.830;2024-03-17T11:25:38;14.50;;;6.28;;
44832;SDS011;30569;51.252;9.830;2024-03-17T11:28:04;10.35;;;6.43;;
44832;SDS011;30569;51.252;9.830;2024-03-17T11:39:00;9.85;;;5.10;;
44832;SDS011;30569;51.252;9.830;2024-03-17T11:49:26;10.40;;;5.38;;
44832;SDS011;30569;51.252;9.830;2024-03-17T11:52:00;7.90;;;4.95;;
44832;SDS011;30569;51.252;9.830;2024-03-17T11:54:28;10.57;;;5.05;;
44832;SDS011;30569;51.252;9.830;2024-03-17T11:59:31;8.68;;;5.25;;
44832;SDS011;30569;51.252;9.830;2024-03-17T12:01:58;9.85;;;5.55;;
44832;SDS011;30569;51.252;9.830;2024-03-17T12:04:24;9.75;;;5.47;;
44832;SDS011;30569;51.252;9.830;2024-03-17T12:06:57;8.45;;;5.28;;
44832;SDS011;30569;51.252;9.830;2024-03-17T12:12:11;10.10;;;5.75;;
44832;SDS011;30569;51.252;9.830;2024-03-17T12:14:41;10.63;;;5.20;;
44832;SDS011;30569;51.252;9.830;2024-03-17T12:17:07;9.88;;;5.10;;
44832;SDS011;30569;51.252;9.830;2024-03-17T12:19:34;9.15;;;5.05;;
44832;SDS011;30569;51.252;9.830;2024-03-17T12:22:00;9.30;;;4.28;;
44832;SDS011;30569;51.252;9.830;2024-03-17T12:24:27;10.05;;;4.57;;
44832;SDS011;30569;51.252;9.830;2024-03-17T12:26:55;9.30;;;5.05;;
44832;SDS011;30569;51.252;9.830;2024-03-17T12:32:26;11.13;;;5.50;;
44832;SDS011;30569;51.252;9.830;2024-03-17T12:34:57;10.75;;;4.90;;
44832;SDS011;30569;51.252;9.830;2024-03-17T12:37:24;7.68;;;4.45;;
44832;SDS011;30569;51.252;9.830;2024-03-17T12:39:56;8.82;;;5.30;;
44832;SDS011;30569;51.252;9.830;2024-03-17T12:42:28;8.65;;;5.18;;
44832;SDS011;30569;51.252;9.830;2024-03-17T12:44:57;11.10;;;4.70;;
44832;SDS011;30569;51.252;9.830;2024-03-17T12:47:29;7.50;;;5.15;;
44832;SDS011;30569;51.252;9.830;2024-03-17T12:49:59;10.30;;;5.13;;
44832;SDS011;30569;51.252;9.830;2024-03-17T12:52:29;10.38;;;4.57;;
44832;SDS011;30569;51.252;9.830;2024-03-17T12:55:05;10.45;;;4.85;;
44832;SDS011;30569;51.252;9.830;2024-03-17T12:57:50;11.27;;;5.47;;
44832;SDS011;30569;51.252;9.830;2024-03-17T13:00:47;9.38;;;5.35;;
44832;SDS011;30569;51.252;9.830;2024-03-17T13:03:26;7.15;;;4.82;;
44832;SDS011;30569;51.252;9.830;2024-03-17T13:05:54;10.15;;;5.15;;
44832;SDS011;30569;51.252;9.830;2024-03-17T13:08:19;8.13;;;5.30;;
44832;SDS011;30569;51.252;9.830;2024-03-17T13:10:45;10.02;;;5.80;;
44832;SDS011;30569;51.252;9.830;2024-03-17T13:13:12;7.57;;;4.38;;
44832;SDS011;30569;51.252;9.830;2024-03-17T13:15:41;8.23;;;4.90;;
44832;SDS011;30569;51.252;9.830;2024-03-17T13:18:07;9.27;;;4.63;;
44832;SDS011;30569;51.252;9.830;2024-03-17T13:20:33;7.32;;;4.38;;
44832;SDS011;30569;51.252;9.830;2024-03-17T13:22:59;11.82;;;5.32;;
44832;SDS011;30569;51.252;9.830;2024-03-17T13:25:26;7.43;;;4.60;;
44832;SDS011;30569;51.252;9.830;2024-03-17T13:28:00;8.20;;;4.45;;
44832;SDS011;30569;51.252;9.830;2024-03-17T13:30:25;9.40;;;4.93;;
44832;SDS011;30569;51.252;9.830;2024-03-17T13:32:53;8.65;;;4.68;;
44832;SDS011;30569;51.252;9.830;2024-03-17T13:35:26;10.48;;;5.32;;
44832;SDS011;30569;51.252;9.830;2024-03-17T13:37:52;8.48;;;4.78;;
44832;SDS011;30569;51.252;9.830;2024-03-17T13:40:19;7.63;;;4.72;;
44832;SDS011;30569;51.252;9.830;2024-03-17T13:42:45;8.40;;;4.72;;
44832;SDS011;30569;51.252;9.830;2024-03-17T13:45:13;10.02;;;5.00;;
44832;SDS011;30569;51.252;9.830;2024-03-17T13:47:39;7.20;;;4.20;;
44832;SDS011;30569;51.252;9.830;2024-03-17T13:50:06;8.05;;;4.90;;
44832;SDS011;30569;51.252;9.830;2024-03-17T13:52:39;7.97;;;4.65;;
44832;SDS011;30569;51.252;9.830;2024-03-17T13:55:05;8.02;;;4.30;;
44832;SDS011;30569;51.252;9.830;2024-03-17T13:57:34;8.00;;;4.68;;
44832;SDS011;30569;51.252;9.830;2024-03-17T14:00:00;8.35;;;4.47;;
44832;SDS011;30569;51.252;9.830;2024-03-17T14:02:26;9.57;;;4.40;;
44832;SDS011;30569;51.252;9.830;2024-03-17T14:04:51;9.63;;;4.80;;
44832;SDS011;30569;51.252;9.830;2024-03-17T14:07:17;7.22;;;4.30;;
44832;SDS011;30569;51.252;9.830;2024-03-17T14:09:43;8.25;;;4.43;;
44832;SDS011;30569;51.252;9.830;2024-03-17T14:12:08;8.77;;;4.47;;
44832;SDS011;30569;51.252;9.830;2024-03-17T14:14:34;9.00;;;5.20;;
44832;SDS011;30569;51.252;9.830;2024-03-17T14:16:59;7.40;;;4.28;;
44832;SDS011;30569;51.252;9.830;2024-03-17T14:19:25;8.10;;;4.40;;
44832;SDS011;30569;51.252;9.830;2024-03-17T14:21:51;8.77;;;4.45;;
44832;SDS011;30569;51.252;9.830;2024-03-17T14:24:17;7.75;;;4.05;;
44832;SDS011;30569;51.252;9.830;2024-03-17T14:26:43;10.63;;;4.90;;
44832;SDS011;30569;51.252;9.830;2024-03-17T14:29:08;8.55;;;4.75;;
44832;SDS011;30569;51.252;9.830;2024-03-17T14:31:34;9.13;;;4.22;;
44832;SDS011;30569;51.252;9.830;2024-03-17T14:34:03;9.80;;;4.40;;
44832;SDS011;30569;51.252;9.830;2024-03-17T14:36:31;10.50;;;4.07;;
44832;SDS011;30569;51.252;9.830;2024-03-17T14:38:58;11.35;;;4.68;;
44832;SDS011;30569;51.252;9.830;2024-03-17T14:41:24;8.57;;;4.55;;
44832;SDS011;30569;51.252;9.830;2024-03-17T14:43:52;7.50;;;4.10;;
44832;SDS011;30569;51.252;9.830;2024-03-17T14:46:17;7.80;;;4.30;;
44832;SDS011;30569;51.252;9.830;2024-03-17T14:48:43;7.18;;;4.10;;
44832;SDS011;30569;51.252;9.830;2024-03-17T14:51:09;8.93;;;4.30;;
44832;SDS011;30569;51.252;9.830;2024-03-17T14:53:35;7.20;;;4.40;;
44832;SDS011;30569;51.252;9.830;2024-03-17T14:56:02;8.05;;;4.35;;
44832;SDS011;30569;51.252;9.830;2024-03-17T14:58:28;8.07;;;4.03;;
44832;SDS011;30569;51.252;9.830;2024-03-17T15:00:54;7.30;;;4.00;;
44832;SDS011;30569;51.252;9.830;2024-03-17T15:03:20;8.27;;;4.25;;
44832;SDS011;30569;51.252;9.830;2024-03-17T15:05:46;13.73;;;4.53;;
44832;SDS011;30569;51.252;9.830;2024-03-17T15:08:11;6.88;;;3.92;;
44832;SDS011;30569;51.252;9.830;2024-03-17T15:10:37;9.40;;;4.00;;
44832;SDS011;30569;51.252;9.830;2024-03-17T15:13:02;7.18;;;4.15;;
44832;SDS011;30569;51.252;9.830;2024-03-17T15:15:28;7.43;;;4.43;;
44832;SDS011;30569;51.252;9.830;2024-03-17T15:17:54;7.63;;;3.80;;
44832;SDS011;30569;51.252;9.830;2024-03-17T15:20:19;6.55;;;4.05;;
44832;SDS011;30569;51.252;9.830;2024-03-17T15:22:47;8.38;;;4.20;;